Asert, OR

4:52 PM PDT on September 01, 2015 (GMT -0700)
Hogan and Roberts | | Change Station
CLOSE
Current Station
Personal Weather Station
Location: Gresham, OR
Elevation: 384 ft
Nearby Weather Stations

Elev 384 ft 45.49 °N, 122.42 °W | Updated 37 seconds ago

Mostly Cloudy
Mostly Cloudy
73.9 °F
Feels Like 77 °F
N
2.2
Wind Variable Wind from SSW
Gusts 2.2 mph

Today
High -- | Low -- °F
--% Chance of Precip.
Yesterday
High -- | Low -- °F
Precip. -- in
6:30 AM 7:47 PM
Waning Gibbous, 85% visible
Pressure 29.83 in
Visibility 10.0 miles
Clouds Scattered Clouds 6000 ft
Overcast 8000 ft
Heat Index 77 °F
Dew Point 41 °F
Humidity 30%
Rainfall 0.00 in
Snow Depth Not available.
UV 1 out of 12
Pollen 2.90 out of 12
Air Quality Not available.
Flu Activity Not available.
METAR KTTD 012253Z 26006KT 10SM SCT060 OVC080 24/11 A2982 RMK AO2 SLP099 T02440111
Pressure 29.83 in
Visibility 10.0 miles
Clouds Scattered Clouds 6000 ft
Overcast 8000 ft
Heat Index 77 °F
Dew Point 41 °F
Humidity 30%
Rainfall 0.00 in
Snow Depth Not available.
UV 1 out of 12
Pollen 2.90 out of 12
Air Quality Not available.
Flu Activity Not available.
METAR KTTD 012253Z 26006KT 10SM SCT060 OVC080 24/11 A2982 RMK AO2 SLP099 T02440111

10-Day Weather Forecast

×

Almanac

Astronomy

Sep. 01, 2015 Rise Set
Actual Time
Civil Twilight
Nautical Twilight
Astronomical Twilight
Moon
Length of Visible Light
Length of Day
Tomorrow will be .
, % of the Moon is Illuminated

Today's Extremes

State Highs State Lows

Community

WunderPhotos

Upload Photos

1,851,643 photos uploaded!

WunderBlogs® & News

Nearby

Air Quality

  Air Quality AQ Index Pollutant
Not available.

Snow Depth

Station Depth Elevation

Earthquake Activity

City Distance Mag. Time & Date
Minimum magnitude displayed is 2.5.

Coastal Water Temperatures

Place Temperature

Stations

Nearby Weather Stations

Station Location Temp. Windchill Dew Point Humidity Wind Precip. Elev Updated Type